Aérodrome :
LOGIN :

S'inscrire | Disclaimer

   EN    FR    IT 

 










Légende :    VFR   VFR Marginal   IFR   IFR Intensif   IFR Très Intensif
Visi : 
Plafond : 
>= 8 km
>= 3000ft
5 à 8 km
1000 à 3000 ft
1500m à 5 km
500 à 1000 ft
800 à 1500m
200 à 500 ft
< 800m
< 200 ft
Symboles :   Orages  Brouillard  Fortes neiges  Fortes précipitations  Vent > 20 kt
SIGMETs :   Divers  Orages  Givrage  Turbulence  Onde Orograph.  Cendres Volcan.






- Altitude de l'aérodrome : 147 ft
- Code IATA : DUS


EDDL - Düsseldorf Int.

DERNIER METAR :
  • 221520Z 25005KT 9999 FEW024 07/01 Q0995 NOSIG

METARs EXPIRÉS :
  • 221450Z 25007KT 9999 FEW024 07/01 Q0995 NOSIG
  • 221420Z 26008KT 9999 FEW024 07/01 Q0995 NOSIG
  • 221350Z 26009KT 9999 FEW024 07/02 Q0994 NOSIG
  • 221320Z 22010KT 9999 FEW022 07/02 Q0994 BECMG 23005KT
  • 221250Z 23012KT 9999 FEW020 07/02 Q0994 BECMG 23005KT

TAF TAF EDDL
Valide du 22 à 12h jusqu'au 23 à 18h UTC


221100Z 2212/2318 22009KT 9999 SCT035
PROB30
TEMPO 2212/2214 BKN012
BECMG 2214/2217 22004KT
BECMG 2300/2303 16009KT
BECMG 2311/2314 22006KT



MET'MAP, la Météo Aéronautique d'un coup d'oeil ! - Copyright ORBIFLY Décembre 2007 - Disclaimer

ORBIFLY MET'MAP TEAM :

Programmation & Développement : Alexandra Zaïnal
Sur une idée originale de : Baudouin d'Aumeries
Assistance à la programmation : Marc-Olivier Méhu
Soutien technique & logistique : Manuel Goepfert

Contact : metmap@orbifly.com




SOURCES & CREDITS :

   NOAA